OAL170 LGAV-LIRZ
Flight info
| Callsign | OAL170 |
|---|---|
| Flight time | N/A |
| Altitude | 36000 |
| Route | KOR UL53 KRK UL995 TIGRA DCT KAPPO DCT DIVKU DCT PES DCT TUFTE DCT KATAR |
| Aircraft | B737/M-SDE2E3FGHIRWXY/LB1 |
Departure
| Time | 2026-05-07 12:39 |
|---|---|
| Airport | Athens Eleftherios Venizelos International Airport (LGAV) |
Arrival
| Time | N/A |
|---|---|
| Airport | Perugia San Francesco d'Assisi – Umbria International Airport (LIRZ) |
| Time | Latitude | Longitude | Altitude | Speed | Heading |
|---|---|---|---|---|---|
| 2026-05-07 12:10 | 37.93912 | 23.95132 | 300 ft | 0 kts | 302° |
| 2026-05-07 12:28 | 37.93910 | 23.95135 | 320 ft | 3 kts | 302° |
| 2026-05-07 12:28 | 37.93895 | 23.95162 | 295 ft | 4 kts | 313° |
| 2026-05-07 12:29 | 37.93875 | 23.95184 | 302 ft | 4 kts | 330° |
| 2026-05-07 12:29 | 37.93851 | 23.95195 | 299 ft | 4 kts | 11° |
| 2026-05-07 12:29 | 37.93841 | 23.95190 | 302 ft | 1 kts | 36° |
| 2026-05-07 12:33 | 37.93887 | 23.95318 | 299 ft | 11 kts | 75° |
| 2026-05-07 12:33 | 37.93867 | 23.95396 | 301 ft | 9 kts | 118° |
| 2026-05-07 12:33 | 37.93874 | 23.95482 | 299 ft | 12 kts | 52° |
| 2026-05-07 12:34 | 37.93943 | 23.95559 | 297 ft | 14 kts | 37° |
| 2026-05-07 12:34 | 37.94025 | 23.95635 | 297 ft | 15 kts | 36° |
| 2026-05-07 12:34 | 37.94109 | 23.95714 | 298 ft | 15 kts | 39° |
| 2026-05-07 12:34 | 37.94190 | 23.95793 | 299 ft | 15 kts | 37° |
| 2026-05-07 12:35 | 37.94266 | 23.95864 | 296 ft | 0 kts | 36° |
| 2026-05-07 12:35 | 37.94329 | 23.95923 | 297 ft | 18 kts | 36° |
| 2026-05-07 12:35 | 37.94435 | 23.96025 | 299 ft | 20 kts | 37° |
| 2026-05-07 12:35 | 37.94548 | 23.96132 | 298 ft | 24 kts | 37° |
| 2026-05-07 12:36 | 37.94687 | 23.96265 | 298 ft | 24 kts | 37° |
| 2026-05-07 12:36 | 37.94815 | 23.96387 | 300 ft | 23 kts | 36° |
| 2026-05-07 12:36 | 37.94941 | 23.96504 | 300 ft | 22 kts | 37° |
| 2026-05-07 12:36 | 37.95062 | 23.96621 | 301 ft | 22 kts | 37° |
| 2026-05-07 12:37 | 37.95180 | 23.96733 | 303 ft | 21 kts | 37° |
| 2026-05-07 12:37 | 37.95282 | 23.96834 | 302 ft | 14 kts | 50° |
| 2026-05-07 12:37 | 37.95271 | 23.96944 | 305 ft | 13 kts | 125° |
| 2026-05-07 12:37 | 37.95200 | 23.97008 | 308 ft | 13 kts | 183° |
| 2026-05-07 12:38 | 37.95121 | 23.96959 | 308 ft | 13 kts | 216° |
| 2026-05-07 12:38 | 37.95041 | 23.96880 | 307 ft | 24 kts | 216° |
| 2026-05-07 12:38 | 37.94720 | 23.96575 | 300 ft | 100 kts | 217° |
| 2026-05-07 12:38 | 37.93979 | 23.95854 | 414 ft | 161 kts | 218° |
| 2026-05-07 12:39 | 37.93091 | 23.94980 | 1521 ft | 152 kts | 215° |
| 2026-05-07 12:39 | 37.92304 | 23.94385 | 2949 ft | 117 kts | 200° |
| 2026-05-07 12:39 | 37.91529 | 23.93940 | 3530 ft | 138 kts | 216° |
| 2026-05-07 12:39 | 37.90626 | 23.93215 | 3911 ft | 172 kts | 209° |
| 2026-05-07 12:40 | 37.89452 | 23.92411 | 4238 ft | 209 kts | 208° |
| 2026-05-07 12:40 | 37.88074 | 23.91482 | 4665 ft | 233 kts | 208° |
| 2026-05-07 12:40 | 37.86854 | 23.90123 | 5338 ft | 241 kts | 240° |
| 2026-05-07 12:40 | 37.86489 | 23.88061 | 6180 ft | 245 kts | 272° |
| 2026-05-07 12:41 | 37.86832 | 23.85930 | 6990 ft | 249 kts | 285° |
| 2026-05-07 12:41 | 37.87397 | 23.83828 | 7687 ft | 259 kts | 289° |
| 2026-05-07 12:41 | 37.88042 | 23.81618 | 8263 ft | 275 kts | 289° |
| 2026-05-07 12:41 | 37.88718 | 23.79322 | 9281 ft | 279 kts | 290° |
| 2026-05-07 12:42 | 37.89383 | 23.77046 | 10399 ft | 280 kts | 290° |
| 2026-05-07 12:42 | 37.90076 | 23.74660 | 11009 ft | 301 kts | 289° |
| 2026-05-07 12:42 | 37.90830 | 23.72036 | 11220 ft | 332 kts | 289° |
| 2026-05-07 12:42 | 37.91638 | 23.69202 | 11762 ft | 348 kts | 289° |
| 2026-05-07 12:43 | 37.92462 | 23.66296 | 12679 ft | 351 kts | 289° |
| 2026-05-07 12:43 | 37.93284 | 23.63386 | 13732 ft | 351 kts | 289° |
| 2026-05-07 12:43 | 37.94104 | 23.60468 | 14673 ft | 352 kts | 289° |
| 2026-05-07 12:43 | 37.94930 | 23.57521 | 15461 ft | 357 kts | 289° |
| 2026-05-07 12:44 | 37.95768 | 23.54525 | 16219 ft | 363 kts | 288° |
| 2026-05-07 12:44 | 37.96616 | 23.51483 | 16986 ft | 367 kts | 288° |
| 2026-05-07 12:44 | 37.97473 | 23.48405 | 17775 ft | 372 kts | 288° |
| 2026-05-07 12:44 | 37.98328 | 23.45333 | 18515 ft | 376 kts | 288° |
| 2026-05-07 12:45 | 37.99200 | 23.42192 | 19169 ft | 380 kts | 288° |
| 2026-05-07 12:45 | 38.00081 | 23.39021 | 19859 ft | 383 kts | 288° |
| 2026-05-07 12:45 | 38.00967 | 23.35824 | 20579 ft | 385 kts | 288° |
| 2026-05-07 12:45 | 38.01860 | 23.32598 | 21255 ft | 388 kts | 288° |
| 2026-05-07 12:46 | 38.02760 | 23.29343 | 21904 ft | 392 kts | 288° |